TimeMDT,TemperatureF,Dew PointF,Humidity,Sea Level PressureIn,VisibilityMPH,Wind Direction,Wind SpeedMPH,Gust SpeedMPH,PrecipitationIn,Events,Conditions,WindDirDegrees,DateUTC
12:15 AM,55.4,46.4,72,30.24,10.0,Calm,Calm,-,N/A,,Clear,0,2013-06-27 06:15:00
12:35 AM,60.8,44.6,55,30.24,10.0,WSW,3.5,-,N/A,,Clear,240,2013-06-27 06:35:00
12:55 AM,57.2,44.6,63,30.24,10.0,Calm,Calm,-,N/A,,Clear,0,2013-06-27 06:55:00
1:15 AM,55.4,46.4,72,30.24,10.0,SE,4.6,-,N/A,,Clear,130,2013-06-27 07:15:00
1:35 AM,55.4,44.6,67,30.24,10.0,ESE,3.5,-,N/A,,Clear,120,2013-06-27 07:35:00
1:55 AM,57.2,44.6,63,30.24,10.0,Calm,Calm,-,N/A,,Clear,0,2013-06-27 07:55:00
2:15 AM,55.4,44.6,67,30.24,10.0,Calm,Calm,-,N/A,,Clear,0,2013-06-27 08:15:00
2:35 AM,51.8,44.6,76,30.25,10.0,Calm,Calm,-,N/A,,Clear,0,2013-06-27 08:35:00
2:55 AM,51.8,44.6,76,30.25,10.0,Calm,Calm,-,N/A,,Clear,0,2013-06-27 08:55:00
3:15 AM,51.8,44.6,76,30.26,10.0,Calm,Calm,-,N/A,,Clear,0,2013-06-27 09:15:00
3:35 AM,51.8,44.6,76,30.26,10.0,Calm,Calm,-,N/A,,Clear,0,2013-06-27 09:35:00
3:55 AM,53.6,42.8,67,30.26,10.0,Calm,Calm,-,N/A,,Clear,0,2013-06-27 09:55:00
4:15 AM,51.8,44.6,76,30.27,10.0,Calm,Calm,-,N/A,,Clear,0,2013-06-27 10:15:00
4:35 AM,51.8,42.8,71,30.27,10.0,Calm,Calm,-,N/A,,Clear,0,2013-06-27 10:35:00
4:55 AM,51.8,42.8,71,30.28,10.0,Calm,Calm,-,N/A,,Clear,0,2013-06-27 10:55:00
5:15 AM,48.2,42.8,82,30.28,10.0,Calm,Calm,-,N/A,,Clear,0,2013-06-27 11:15:00
5:35 AM,48.2,42.8,82,30.28,10.0,Calm,Calm,-,N/A,,Clear,0,2013-06-27 11:35:00
5:55 AM,48.2,42.8,82,30.30,10.0,Calm,Calm,-,N/A,,Clear,0,2013-06-27 11:55:00
6:15 AM,46.4,42.8,87,30.31,10.0,Calm,Calm,-,N/A,,Clear,0,2013-06-27 12:15:00
6:35 AM,50.0,44.6,82,30.31,10.0,Calm,Calm,-,N/A,,Clear,0,2013-06-27 12:35:00
6:55 AM,51.8,44.6,76,30.32,10.0,Calm,Calm,-,N/A,,Clear,0,2013-06-27 12:55:00
7:15 AM,55.4,46.4,72,30.33,10.0,Calm,Calm,-,N/A,,Clear,0,2013-06-27 13:15:00
7:35 AM,59.0,46.4,63,30.33,10.0,Calm,Calm,-,N/A,,Clear,0,2013-06-27 13:35:00
7:55 AM,59.0,46.4,63,30.34,10.0,Calm,Calm,-,N/A,,Clear,0,2013-06-27 13:55:00
8:15 AM,60.8,46.4,59,30.34,10.0,Calm,Calm,-,N/A,,Clear,0,2013-06-27 14:15:00
8:35 AM,62.6,44.6,52,30.34,10.0,Calm,Calm,-,N/A,,Clear,0,2013-06-27 14:35:00
8:55 AM,64.4,42.8,45,30.34,10.0,Calm,Calm,-,N/A,,Clear,0,2013-06-27 14:55:00
9:15 AM,66.2,42.8,43,30.34,10.0,Calm,Calm,-,N/A,,Clear,0,2013-06-27 15:15:00
9:35 AM,68.0,42.8,40,30.34,10.0,Calm,Calm,-,N/A,,Clear,0,2013-06-27 15:35:00
9:55 AM,69.8,42.8,38,30.34,10.0,Calm,Calm,-,N/A,,Clear,0,2013-06-27 15:55:00
10:15 AM,73.4,41.0,31,30.34,10.0,WNW,3.5,-,N/A,,Clear,300,2013-06-27 16:15:00
10:35 AM,73.4,41.0,31,30.34,10.0,Calm,Calm,-,N/A,,Clear,0,2013-06-27 16:35:00
10:55 AM,77.0,42.8,29,30.33,10.0,Calm,Calm,-,N/A,,Clear,0,2013-06-27 16:55:00
11:15 AM,78.8,42.8,28,30.33,10.0,Calm,Calm,-,N/A,,Clear,0,2013-06-27 17:15:00
11:35 AM,82.4,42.8,25,30.32,10.0,NNW,3.5,-,N/A,,Clear,340,2013-06-27 17:35:00
11:55 AM,84.2,42.8,23,30.32,10.0,Calm,Calm,-,N/A,,Clear,0,2013-06-27 17:55:00
12:15 PM,86.0,42.8,22,30.32,10.0,Calm,Calm,-,N/A,,Clear,0,2013-06-27 18:15:00
12:35 PM,87.8,41.0,19,30.30,10.0,Calm,Calm,-,N/A,,Clear,0,2013-06-27 18:35:00
12:55 PM,89.6,42.8,20,30.30,10.0,Calm,Calm,-,N/A,,Clear,0,2013-06-27 18:55:00
1:15 PM,91.4,42.8,18,30.30,10.0,Calm,Calm,-,N/A,,Clear,0,2013-06-27 19:15:00
1:35 PM,95.0,35.6,12,30.29,10.0,SE,3.5,-,N/A,,Clear,130,2013-06-27 19:35:00
1:55 PM,95.0,35.6,12,30.29,10.0,SW,4.6,-,N/A,,Clear,220,2013-06-27 19:55:00
2:15 PM,95.0,33.8,12,30.28,10.0,WSW,5.8,-,N/A,,Clear,240,2013-06-27 20:15:00
2:35 PM,96.8,33.8,11,30.28,10.0,WSW,10.4,-,N/A,,Clear,250,2013-06-27 20:35:00
2:55 PM,96.8,35.6,12,30.27,10.0,WSW,8.1,-,N/A,,Clear,250,2013-06-27 20:55:00
3:15 PM,95.0,37.4,13,30.27,10.0,SSW,6.9,-,N/A,,Clear,210,2013-06-27 21:15:00
3:35 PM,96.8,37.4,13,30.26,10.0,SSW,6.9,-,N/A,,Clear,210,2013-06-27 21:35:00
3:55 PM,96.8,37.4,13,30.26,10.0,WSW,11.5,17.3,N/A,,Clear,240,2013-06-27 21:55:00
4:15 PM,96.8,33.8,11,30.26,10.0,WSW,11.5,17.3,N/A,,Clear,250,2013-06-27 22:15:00
4:35 PM,96.8,35.6,12,30.25,10.0,SW,6.9,-,N/A,,Clear,220,2013-06-27 22:35:00
4:55 PM,96.8,32.0,10,30.25,10.0,WSW,3.5,-,N/A,,Clear,240,2013-06-27 22:55:00
5:15 PM,96.8,33.8,11,30.25,10.0,West,6.9,-,N/A,,Clear,270,2013-06-27 23:15:00
5:35 PM,96.8,33.8,11,30.25,10.0,Calm,Calm,-,N/A,,Clear,0,2013-06-27 23:35:00
5:55 PM,96.8,32.0,10,30.24,10.0,NW,4.6,-,N/A,,Clear,310,2013-06-27 23:55:00
6:15 PM,96.8,32.0,10,30.24,10.0,NNW,3.5,-,N/A,,Clear,330,2013-06-28 00:15:00
6:35 PM,96.8,32.0,10,30.24,10.0,NNW,4.6,-,N/A,,Clear,330,2013-06-28 00:35:00
6:55 PM,95.0,32.0,11,30.23,10.0,Calm,Calm,-,N/A,,Clear,0,2013-06-28 00:55:00
7:15 PM,93.2,39.2,15,30.24,10.0,North,9.2,-,N/A,,Clear,10,2013-06-28 01:15:00
7:35 PM,91.4,41.0,17,30.24,10.0,North,9.2,-,N/A,,Clear,360,2013-06-28 01:35:00
7:55 PM,89.6,42.8,20,30.24,10.0,North,6.9,-,N/A,,Clear,10,2013-06-28 01:55:00
8:15 PM,87.8,44.6,22,30.25,10.0,NNW,5.8,-,N/A,,Clear,330,2013-06-28 02:15:00
8:35 PM,84.2,44.6,25,30.25,10.0,North,6.9,-,N/A,,Clear,350,2013-06-28 02:35:00
8:55 PM,80.6,42.8,26,30.25,10.0,NNE,4.6,-,N/A,,Clear,30,2013-06-28 02:55:00
9:15 PM,73.4,46.4,38,30.26,10.0,ESE,3.5,-,N/A,,Clear,110,2013-06-28 03:15:00
9:35 PM,71.6,50.0,46,30.26,10.0,East,3.5,-,N/A,,Clear,90,2013-06-28 03:35:00
9:55 PM,69.8,50.0,49,30.27,10.0,ESE,4.6,-,N/A,,Clear,120,2013-06-28 03:55:00
10:15 PM,69.8,48.2,46,30.28,10.0,SE,4.6,-,N/A,,Clear,130,2013-06-28 04:15:00
10:35 PM,71.6,44.6,38,30.29,10.0,Calm,Calm,-,N/A,,Clear,0,2013-06-28 04:35:00
10:55 PM,69.8,46.4,43,30.30,10.0,Calm,Calm,-,N/A,,Clear,0,2013-06-28 04:55:00
11:15 PM,68.0,48.2,49,30.30,10.0,Calm,Calm,-,N/A,,Clear,0,2013-06-28 05:15:00
11:35 PM,64.4,50.0,59,30.31,10.0,Calm,Calm,-,N/A,,Clear,0,2013-06-28 05:35:00
11:55 PM,62.6,50.0,63,30.31,10.0,East,4.6,-,N/A,,Clear,100,2013-06-28 05:55:00